Time;durP1;ratioP1;P1;durP2;ratioP2;P2;SDS_P1;SDS_P2;PMS_P1;PMS_P2;Temp;Humidity;BMP_temperature;BMP_pressure;BME280_temperature;BME280_humidity;BME280_pressure;Samples;Min_cycle;Max_cycle;Signal;HPM_P1;HPM_P2
2023/10/20 00:01:56;;;;;;;8.40;6.00;;;;;;;19.10;100.00;93579.06;5026875;28;20034;-84
2023/10/20 00:04:22;;;;;;;7.70;5.40;;;;;;;19.49;100.00;93573.72;5024239;28;20029;-85
2023/10/20 00:06:47;;;;;;;10.57;6.10;;;;;;;19.45;100.00;93578.03;5026836;28;20022;-84
2023/10/20 00:09:29;;;;;;;11.07;6.03;;;;;;;19.41;100.00;93578.84;5034152;28;20082;-84
2023/10/20 00:11:55;;;;;;;9.17;5.90;;;;;;;19.04;100.00;93567.63;5009710;28;20029;-84
2023/10/20 00:14:30;;;;;;;7.73;5.23;;;;;;;19.38;100.00;93571.41;5020183;28;20140;-84
2023/10/20 00:16:57;;;;;;;11.97;6.70;;;;;;;19.58;100.00;93565.88;5030870;28;20025;-83
2023/10/20 00:19:22;;;;;;;9.63;6.27;;;;;;;19.59;100.00;93574.72;5017391;28;20025;-83
2023/10/20 00:22:01;;;;;;;11.40;5.83;;;;;;;19.43;100.00;93564.16;5032269;28;20086;-84
2023/10/20 00:24:28;;;;;;;8.65;5.00;;;;;;;19.48;100.00;93566.81;5023405;28;20029;-84
2023/10/20 00:26:54;;;;;;;9.77;5.70;;;;;;;19.49;100.00;93562.25;5016584;28;20037;-84
2023/10/20 00:29:19;;;;;;;9.32;5.38;;;;;;;19.83;100.00;93556.91;5025820;28;20025;-84
2023/10/20 00:31:57;;;;;;;8.00;5.78;;;;;;;19.83;100.00;93543.56;5031584;28;20079;-84
2023/10/20 00:34:23;;;;;;;9.47;5.03;;;;;;;20.13;100.00;93538.97;5042332;28;20029;-84
2023/10/20 00:36:48;;;;;;;9.57;6.07;;;;;;;19.51;100.00;93534.22;5037680;28;20513;-85
2023/10/20 00:39:16;;;;;;;8.87;5.30;;;;;;;19.24;100.00;93529.41;5029892;28;20561;-84
2023/10/20 00:41:43;;;;;;;8.23;5.43;;;;;;;19.46;100.00;93509.50;5022458;28;20027;-84
2023/10/20 00:44:09;;;;;;;10.73;6.55;;;;;;;19.73;100.00;93509.00;5045792;28;20029;-84
2023/10/20 00:46:43;;;;;;;10.15;6.10;;;;;;;20.24;100.00;93497.75;5030638;28;20052;-84
2023/10/20 00:49:09;;;;;;;;;;;;;;;19.94;100.00;93497.03;5033649;28;20116;-84
2023/10/20 00:51:35;;;;;;;9.77;6.22;;;;;;;19.99;100.00;93491.66;5033267;28;20027;-84
2023/10/20 00:54:01;;;;;;;12.77;6.57;;;;;;;19.56;100.00;93490.75;5033392;28;20032;-85
2023/10/20 00:56:29;;;;;;;8.70;5.47;;;;;;;19.97;100.00;93488.47;5033071;28;20125;-84
2023/10/20 00:58:55;;;;;;;7.63;5.30;;;;;;;19.80;100.00;93493.47;5028101;28;20064;-85
2023/10/20 01:01:21;;;;;;;9.60;5.97;;;;;;;20.07;100.00;93490.22;5012040;28;20060;-84
2023/10/20 01:03:50;;;;;;;9.10;5.80;;;;;;;20.36;100.00;93500.81;5035345;28;20684;-84
2023/10/20 01:06:15;;;;;;;8.88;5.68;;;;;;;20.23;100.00;93493.50;5017191;28;20025;-84
2023/10/20 01:08:41;;;;;;;9.33;6.10;;;;;;;20.19;100.00;93500.50;5020836;28;20021;-84
2023/10/20 01:11:09;;;;;;;8.38;5.63;;;;;;;20.15;100.00;93489.56;5041482;28;20017;-85
2023/10/20 01:13:38;;;;;;;7.18;5.13;;;;;;;20.05;100.00;93494.25;5037176;28;20100;-85
2023/10/20 01:16:04;;;;;;;8.67;5.67;;;;;;;19.73;100.00;93498.34;5026106;28;20480;-84
2023/10/20 01:18:34;;;;;;;9.15;5.38;;;;;;;19.61;100.00;93492.56;5012512;28;20029;-85
2023/10/20 01:20:59;;;;;;;9.80;5.37;;;;;;;19.30;100.00;93495.53;5030880;28;20068;-85
2023/10/20 01:23:25;;;;;;;11.60;5.95;;;;;;;19.59;100.00;93486.75;5040988;28;20084;-86
2023/10/20 01:25:53;;;;;;;7.28;5.07;;;;;;;19.68;100.00;93490.38;5034815;28;20426;-84
2023/10/20 01:28:19;;;;;;;8.07;4.93;;;;;;;19.70;100.00;93477.56;5029199;28;20368;-83
2023/10/20 01:30:44;;;;;;;8.03;5.20;;;;;;;19.50;100.00;93484.66;5037915;28;20025;-85
2023/10/20 01:33:10;;;;;;;8.35;5.28;;;;;;;19.74;100.00;93475.91;5007930;28;20156;-84
2023/10/20 01:35:35;;;;;;;8.68;5.10;;;;;;;19.87;100.00;93466.44;5033666;28;20013;-84
2023/10/20 01:38:01;;;;;;;10.23;4.97;;;;;;;19.62;100.00;93454.19;5017747;28;20025;-85
2023/10/20 01:40:35;;;;;;;7.63;5.13;;;;;;;19.94;100.00;93450.91;5031409;28;20029;-84
2023/10/20 01:43:04;;;;;;;8.48;5.00;;;;;;;20.14;100.00;93450.63;5030178;28;20025;-85
2023/10/20 01:45:29;;;;;;;9.07;5.57;;;;;;;19.86;100.00;93452.31;5035273;28;20048;-84
2023/10/20 01:47:55;;;;;;;9.27;5.63;;;;;;;19.70;100.00;93453.56;5035241;28;20028;-83
2023/10/20 01:50:22;;;;;;;8.47;5.73;;;;;;;20.25;100.00;93445.97;5034286;28;20101;-85
2023/10/20 01:52:48;;;;;;;9.30;5.50;;;;;;;19.84;100.00;93441.13;5019657;28;20071;-85
2023/10/20 01:55:27;;;;;;;10.37;5.23;;;;;;;19.58;100.00;93437.16;5045441;28;20124;-86
2023/10/20 01:57:52;;;;;;;8.03;5.47;;;;;;;19.90;100.00;93418.66;5003876;28;20113;-85
2023/10/20 02:00:18;;;;;;;9.30;5.75;;;;;;;20.35;100.00;93408.44;5029050;28;20032;-85
2023/10/20 02:02:43;;;;;;;10.13;5.70;;;;;;;20.39;100.00;93398.03;5030999;28;20029;-85
2023/10/20 02:05:09;;;;;;;8.73;6.00;;;;;;;20.47;100.00;93400.81;5030373;28;20021;-85
2023/10/20 02:07:36;;;;;;;10.65;6.43;;;;;;;20.69;100.00;93380.75;5016006;28;20060;-85
2023/10/20 02:10:03;;;;;;;9.47;5.93;;;;;;;20.61;100.00;93373.41;5026760;28;20021;-85
2023/10/20 02:12:29;;;;;;;8.80;5.10;;;;;;;20.79;100.00;93355.75;5043726;28;20048;-85
2023/10/20 02:14:55;;;;;;;7.40;5.47;;;;;;;20.40;100.00;93355.00;5042136;28;20113;-85
2023/10/20 02:17:20;;;;;;;7.83;5.13;;;;;;;20.75;100.00;93341.41;5017160;28;20028;-85
2023/10/20 02:19:46;;;;;;;8.73;5.20;;;;;;;20.64;100.00;93335.44;5019703;28;20036;-85
2023/10/20 02:22:12;;;;;;;7.18;4.75;;;;;;;20.69;100.00;93322.00;5031092;28;20104;-86
2023/10/20 02:24:38;;;;;;;7.70;5.22;;;;;;;20.76;100.00;93319.75;5030670;28;20033;-85
2023/10/20 02:27:14;;;;;;;6.80;4.80;;;;;;;20.88;100.00;93314.72;5035914;28;20021;-85
2023/10/20 02:29:40;;;;;;;11.82;5.30;;;;;;;20.57;100.00;93303.78;5018665;28;20083;-85
2023/10/20 02:32:05;;;;;;;8.57;4.88;;;;;;;19.89;100.00;93297.06;5012881;28;20033;-84
2023/10/20 02:34:31;;;;;;;13.43;6.77;;;;;;;19.62;100.00;93292.34;5012711;28;20484;-85
2023/10/20 02:36:57;;;;;;;9.53;6.80;;;;;;;19.39;100.00;93286.00;5014468;28;20087;-84
2023/10/20 02:39:22;;;;;;;11.10;7.23;;;;;;;19.12;100.00;93283.91;5007690;28;20021;-84
2023/10/20 02:41:48;;;;;;;11.30;8.43;;;;;;;19.01;100.00;93269.94;5024956;28;20040;-84
2023/10/20 02:44:14;;;;;;;11.77;8.00;;;;;;;19.70;100.00;93267.72;5030793;28;20022;-84
2023/10/20 02:46:40;;;;;;;12.40;9.63;;;;;;;19.62;100.00;93256.91;5019406;28;20472;-85
2023/10/20 02:49:06;;;;;;;13.77;9.27;;;;;;;19.42;100.00;93253.44;5012429;28;20521;-85
2023/10/20 02:51:32;;;;;;;14.07;9.80;;;;;;;19.73;100.00;93259.16;5031506;28;20116;-84
2023/10/20 02:53:57;;;;;;;16.00;9.67;;;;;;;19.44;100.00;93259.25;5023387;28;20112;-86
2023/10/20 02:56:23;;;;;;;16.67;10.53;;;;;;;19.34;100.00;93263.94;5030086;28;20022;-85
2023/10/20 02:58:53;;;;;;;14.53;10.13;;;;;;;19.22;100.00;93261.69;5026830;28;20037;-86
2023/10/20 03:01:19;;;;;;;15.53;11.33;;;;;;;19.59;100.00;93260.16;5009633;28;20026;-86
2023/10/20 03:03:50;;;;;;;21.47;11.43;;;;;;;19.59;100.00;93268.94;5014865;28;20025;-86
2023/10/20 03:06:16;;;;;;;16.20;11.70;;;;;;;19.62;100.00;93270.25;5024811;28;20017;-86
2023/10/20 03:08:42;;;;;;;15.10;12.77;;;;;;;19.72;100.00;93268.25;5034653;28;20029;-85
2023/10/20 03:11:08;;;;;;;16.53;13.17;;;;;;;19.12;100.00;93269.81;5033893;28;20024;-86
2023/10/20 03:13:34;;;;;;;19.03;13.47;;;;;;;19.34;100.00;93264.72;5029956;28;20104;-86
2023/10/20 03:16:03;;;;;;;17.53;12.93;;;;;;;18.98;100.00;93253.69;5027072;28;20021;-86
2023/10/20 03:18:29;;;;;;;17.17;13.43;;;;;;;19.72;100.00;93241.59;5036081;28;20047;-86
2023/10/20 03:20:59;;;;;;;16.07;13.37;;;;;;;20.13;100.00;93237.50;5051604;28;20112;-85
2023/10/20 03:23:36;;;;;;;15.70;13.03;;;;;;;19.87;100.00;93229.88;5014155;28;20045;-85
2023/10/20 03:26:02;;;;;;;16.13;13.37;;;;;;;20.16;100.00;93221.69;5019100;28;20497;-85
2023/10/20 03:28:28;;;;;;;28.83;22.23;;;;;;;20.13;100.00;93232.16;5017950;28;20025;-85
2023/10/20 03:31:02;;;;;;;21.63;17.83;;;;;;;20.15;100.00;93254.00;5018486;28;20034;-86
2023/10/20 03:33:28;;;;;;;16.37;13.70;;;;;;;19.58;100.00;93264.66;5018792;28;20039;-86
2023/10/20 03:36:01;;;;;;;18.77;14.17;;;;;;;19.15;100.00;93272.69;5010532;28;20083;-86
2023/10/20 03:38:27;;;;;;;16.63;13.38;;;;;;;19.39;100.00;93254.00;5019698;28;20045;-86
2023/10/20 03:41:11;;;;;;;17.27;14.17;;;;;;;19.91;100.00;93246.09;5013605;28;20431;-86
2023/10/20 03:43:37;;;;;;;15.43;12.07;;;;;;;20.28;100.00;93247.13;5026381;28;20037;-86
2023/10/20 03:46:18;;;;;;;22.43;15.13;;;;;;;20.35;100.00;93244.84;5009261;28;20726;-86
2023/10/20 03:48:45;;;;;;;17.93;14.80;;;;;;;20.37;100.00;93235.47;5025113;28;20026;-86
2023/10/20 03:51:12;;;;;;;16.93;13.90;;;;;;;20.01;100.00;93228.06;5031588;28;20025;-86
2023/10/20 03:53:55;;;;;;;19.33;14.03;;;;;;;20.15;100.00;93216.63;5019949;28;20022;-86
2023/10/20 03:56:22;;;;;;;18.63;13.90;;;;;;;19.96;100.00;93209.47;5027365;28;20025;-86
2023/10/20 03:58:47;;;;;;;18.23;14.50;;;;;;;20.16;100.00;93203.03;5019244;28;20185;-86
2023/10/20 04:01:13;;;;;;;18.50;14.13;;;;;;;19.80;100.00;93196.69;5019697;28;20144;-84
2023/10/20 04:03:40;;;;;;;20.43;15.53;;;;;;;19.62;100.00;93198.28;5017892;28;20036;-86
2023/10/20 04:06:09;;;;;;;20.47;16.47;;;;;;;19.50;100.00;93188.81;5013834;28;20052;-84
2023/10/20 04:08:34;;;;;;;19.97;15.60;;;;;;;19.58;100.00;93183.91;5004956;28;20061;-86
2023/10/20 04:11:00;;;;;;;22.60;16.80;;;;;;;19.51;100.00;93169.06;5026672;28;20045;-86
2023/10/20 04:13:29;;;;;;;22.10;18.03;;;;;;;19.13;100.00;93160.31;5027080;28;20021;-89
2023/10/20 04:16:14;;;;;;;24.07;18.83;;;;;;;18.96;100.00;93149.34;5008657;28;20025;-92
2023/10/20 04:18:40;;;;;;;24.20;17.67;;;;;;;19.00;100.00;93139.72;5020936;28;20041;-86
2023/10/20 04:21:06;;;;;;;22.67;17.90;;;;;;;18.12;100.00;93131.13;5004392;28;20030;-86
2023/10/20 04:23:32;;;;;;;23.43;18.43;;;;;;;19.03;100.00;93113.28;5039682;28;20029;-85
2023/10/20 04:25:58;;;;;;;29.63;22.13;;;;;;;18.94;100.00;93101.69;5025380;28;20024;-84
2023/10/20 04:28:44;;;;;;;26.07;20.97;;;;;;;18.69;100.00;93108.13;5026769;28;20491;-87
2023/10/20 05:01:04;;;;;;;29.87;23.80;;;;;;;18.21;100.00;93036.38;4972461;28;20029;-89
2023/10/20 05:03:34;;;;;;;30.63;22.93;;;;;;;17.50;100.00;93027.22;4987938;28;20039;-89
2023/10/20 05:06:20;;;;;;;25.93;21.87;;;;;;;17.86;100.00;93016.28;5024183;28;20091;-88
2023/10/20 05:08:46;;;;;;;25.33;20.97;;;;;;;17.63;100.00;93010.63;5022469;28;20479;-89
2023/10/20 05:11:12;;;;;;;27.20;22.53;;;;;;;17.92;100.00;93001.06;5030448;28;20478;-88
2023/10/20 05:13:38;;;;;;;28.73;22.77;;;;;;;18.21;100.00;92990.34;5039756;28;20032;-88
2023/10/20 05:16:03;;;;;;;29.03;22.77;;;;;;;18.40;100.00;92995.69;5013861;28;20538;-89
2023/10/20 05:18:29;;;;;;;31.30;22.50;;;;;;;17.90;100.00;92994.16;5015130;28;20044;-88
2023/10/20 05:20:55;;;;;;;30.00;25.40;;;;;;;17.60;100.00;92989.94;5040727;28;20399;-89
2023/10/20 05:23:22;;;;;;;30.27;23.80;;;;;;;17.39;100.00;92967.31;5034590;28;20029;-88
2023/10/20 05:25:48;;;;;;;29.17;24.33;;;;;;;17.33;100.00;92961.25;5012350;28;20029;-88
2023/10/20 05:28:18;;;;;;;30.73;22.97;;;;;;;17.55;100.00;92968.75;5034285;28;20036;-89
2023/10/20 05:30:45;;;;;;;28.33;23.27;;;;;;;17.14;100.00;92957.75;5011667;28;20430;-89
2023/10/20 05:33:13;;;;;;;29.93;23.57;;;;;;;17.43;100.00;92950.53;5020917;28;20025;-88
2023/10/20 05:35:46;;;;;;;30.73;23.93;;;;;;;17.38;100.00;92941.84;5040876;28;20475;-88
2023/10/20 05:38:11;;;;;;;27.92;22.90;;;;;;;17.19;100.00;92937.22;5036884;28;20171;-87
2023/10/20 05:40:37;;;;;;;30.73;23.73;;;;;;;17.17;100.00;92920.81;5026635;28;20041;-89
2023/10/20 05:43:05;;;;;;;29.13;24.17;;;;;;;17.29;100.00;92909.00;5026710;28;20029;-89
2023/10/20 05:45:43;;;;;;;27.27;22.53;;;;;;;17.45;100.00;92915.72;5016187;28;20029;-88
2023/10/20 05:48:08;;;;;;;28.33;22.43;;;;;;;16.98;100.00;92937.72;5026817;28;20663;-89
2023/10/20 05:50:35;;;;;;;29.87;22.83;;;;;;;16.89;100.00;92932.22;5030874;28;20021;-89
2023/10/20 05:53:02;;;;;;;31.40;23.90;;;;;;;16.76;100.00;92919.59;5040683;28;20479;-91
2023/10/20 05:55:27;;;;;;;34.00;25.53;;;;;;;16.76;100.00;92924.88;5014030;28;20033;-89
2023/10/20 05:57:53;;;;;;;30.33;23.40;;;;;;;16.77;100.00;92918.50;5014338;28;20025;-90
2023/10/20 06:00:18;;;;;;;31.23;24.63;;;;;;;17.21;100.00;92894.47;5021983;28;20013;-90
2023/10/20 06:02:46;;;;;;;30.03;24.10;;;;;;;17.31;100.00;92893.59;5022973;28;20033;-90
2023/10/20 06:05:11;;;;;;;30.43;23.83;;;;;;;17.52;100.00;92878.97;5016899;28;20021;-90
2023/10/20 06:07:37;;;;;;;30.80;25.07;;;;;;;17.41;100.00;92856.28;5017299;28;20079;-88
2023/10/20 06:10:03;;;;;;;32.27;24.33;;;;;;;17.06;100.00;92844.19;5033171;28;20017;-90
2023/10/20 06:12:29;;;;;;;33.60;25.47;;;;;;;16.98;100.00;92837.63;5016619;28;20045;-89
2023/10/20 06:14:55;;;;;;;33.43;25.23;;;;;;;17.36;100.00;92822.59;5041161;28;20021;-88
2023/10/20 06:17:23;;;;;;;32.83;26.07;;;;;;;17.15;100.00;92811.41;5016703;28;20022;-87
2023/10/20 06:19:48;;;;;;;36.50;24.50;;;;;;;17.71;100.00;92790.53;5018104;28;20025;-88
2023/10/20 06:22:14;;;;;;;32.53;25.37;;;;;;;17.27;100.00;92776.50;5031348;28;20033;-86
2023/10/20 06:24:43;;;;;;;33.13;26.27;;;;;;;17.19;100.00;92777.13;5029104;28;20407;-85
2023/10/20 06:27:09;;;;;;;35.07;26.63;;;;;;;17.12;100.00;92772.16;5017741;28;20049;-85
2023/10/20 06:29:55;;;;;;;33.20;25.90;;;;;;;17.29;100.00;92766.38;5014727;28;20033;-85
2023/10/20 06:34:50;;;;;;;34.57;27.07;;;;;;;17.78;100.00;92783.81;5031214;28;20662;-87
2023/10/20 06:37:37;;;;;;;35.07;28.10;;;;;;;17.45;100.00;92785.56;5013119;28;20129;-87
2023/10/20 06:40:05;;;;;;;36.93;27.50;;;;;;;17.31;100.00;92787.34;5026101;28;20099;-87
2023/10/20 06:42:32;;;;;;;35.80;26.90;;;;;;;17.38;100.00;92762.00;5025527;28;20047;-87
2023/10/20 06:45:04;;;;;;;35.83;26.87;;;;;;;18.03;100.00;92737.44;5024023;28;20018;-87
2023/10/20 06:47:34;;;;;;;33.33;24.23;;;;;;;17.54;100.00;92753.81;5024267;28;20036;-87
2023/10/20 06:50:10;;;;;;;33.97;26.07;;;;;;;17.72;100.00;92745.06;5052568;28;20029;-87
2023/10/20 06:52:45;;;;;;;33.53;25.70;;;;;;;18.61;100.00;92738.84;5037351;28;20447;-87
2023/10/20 06:55:11;;;;;;;34.13;25.30;;;;;;;18.09;100.00;92738.94;5019291;28;20094;-86
2023/10/20 06:57:58;;;;;;;29.87;24.47;;;;;;;17.95;100.00;92719.50;5024318;28;20029;-86
2023/10/20 07:00:23;;;;;;;33.90;25.00;;;;;;;18.29;100.00;92737.03;5042195;28;20073;-87
2023/10/20 07:02:49;;;;;;;28.77;23.00;;;;;;;17.91;100.00;92731.81;5038963;28;20076;-87
2023/10/20 07:05:15;;;;;;;27.27;23.17;;;;;;;17.93;100.00;92742.13;5029625;28;20036;-86
2023/10/20 07:08:21;;;;;;;27.93;22.63;;;;;;;18.20;100.00;92725.47;5035238;28;20060;-87
2023/10/20 07:10:46;;;;;;;27.70;22.37;;;;;;;17.65;100.00;92723.38;5016288;28;20045;-86
2023/10/20 07:13:12;;;;;;;28.27;21.10;;;;;;;17.96;100.00;92712.31;5032015;28;20044;-87
2023/10/20 07:15:40;;;;;;;27.87;21.13;;;;;;;17.89;100.00;92702.84;5030740;28;20028;-87
2023/10/20 07:18:20;;;;;;;28.63;21.87;;;;;;;18.33;100.00;92688.25;5008693;28;20073;-87
2023/10/20 07:20:47;;;;;;;28.97;21.40;;;;;;;18.51;100.00;92691.94;5034811;28;20053;-87
2023/10/20 07:23:12;;;;;;;23.07;19.27;;;;;;;17.81;100.00;92684.13;5014647;28;20497;-88
2023/10/20 07:25:38;;;;;;;24.23;19.47;;;;;;;18.14;100.00;92667.06;5027898;28;20033;-86
2023/10/20 07:28:04;;;;;;;25.03;19.73;;;;;;;18.08;100.00;92660.25;5018598;28;20037;-87
2023/10/20 07:30:34;;;;;;;27.67;20.37;;;;;;;17.83;100.00;92680.06;5036153;28;20158;-87
2023/10/20 07:33:03;;;;;;;22.90;18.30;;;;;;;18.26;100.00;92655.16;5031734;28;20486;-87
2023/10/20 07:35:29;;;;;;;26.37;19.37;;;;;;;18.87;100.00;92647.88;5011286;28;20035;-86
2023/10/20 07:37:54;;;;;;;25.10;19.07;;;;;;;19.20;100.00;92646.63;5018958;28;20043;-87
2023/10/20 07:40:20;;;;;;;24.03;18.97;;;;;;;18.41;100.00;92662.06;5020707;28;20033;-87
2023/10/20 07:42:53;;;;;;;22.27;18.27;;;;;;;17.92;100.00;92653.63;5036113;28;20037;-87
2023/10/20 07:45:19;;;;;;;22.97;18.67;;;;;;;18.28;100.00;92637.03;5026002;28;20025;-87
2023/10/20 07:47:46;;;;;;;23.17;18.47;;;;;;;18.84;100.00;92643.94;5032264;28;20029;-87
2023/10/20 07:50:12;;;;;;;21.77;18.30;;;;;;;18.53;100.00;92657.03;5018045;28;20014;-87
2023/10/20 07:52:37;;;;;;;23.17;18.47;;;;;;;18.59;100.00;92646.00;5033882;28;20398;-87
2023/10/20 07:55:03;;;;;;;24.93;17.77;;;;;;;18.89;100.00;92627.88;5018299;28;20035;-86
2023/10/20 07:57:35;;;;;;;24.97;17.60;;;;;;;18.67;100.00;92630.41;5011172;28;20017;-87
2023/10/20 08:00:02;;;;;;;23.23;16.20;;;;;;;18.95;100.00;92636.53;5035282;28;20147;-87
2023/10/20 08:02:57;;;;;;;25.27;18.27;;;;;;;18.69;100.00;92634.38;5025436;28;20030;-86
2023/10/20 08:05:30;;;;;;;19.10;15.80;;;;;;;18.77;100.00;92632.91;5021437;28;20060;-87
2023/10/20 08:08:08;;;;;;;21.60;18.00;;;;;;;19.22;100.00;92638.34;5030260;28;20048;-87
2023/10/20 08:10:37;;;;;;;22.50;17.07;;;;;;;19.33;100.00;92637.03;5012295;28;20057;-87
2023/10/20 08:13:02;;;;;;;20.30;17.17;;;;;;;18.88;100.00;92636.13;5022799;28;20017;-87
2023/10/20 08:15:39;;;;;;;20.33;15.90;;;;;;;19.22;100.00;92633.03;5022875;28;20028;-87
2023/10/20 08:18:14;;;;;;;22.73;16.40;;;;;;;19.23;100.00;92623.94;5011655;28;20052;-87
2023/10/20 08:20:47;;;;;;;20.10;16.03;;;;;;;19.13;100.00;92637.47;5009480;28;20060;-87
2023/10/20 08:23:13;;;;;;;;;;;;;;;19.13;100.00;92637.47;5035661;28;20624;-88
2023/10/20 08:25:38;;;;;;;22.53;17.03;;;;;;;19.17;100.00;92644.56;5026422;28;19913;-87
2023/10/20 08:28:05;;;;;;;19.03;16.07;;;;;;;19.76;100.00;92645.38;5009678;28;20413;-87
2023/10/20 08:30:30;;;;;;;21.33;17.17;;;;;;;20.02;100.00;92642.09;5027526;28;20029;-88
2023/10/20 08:32:56;;;;;;;22.10;16.83;;;;;;;19.53;100.00;92625.88;5013707;28;20033;-87
2023/10/20 08:35:22;;;;;;;19.97;15.80;;;;;;;19.49;100.00;92638.25;5011566;28;20029;-87
2023/10/20 08:37:48;;;;;;;20.17;15.13;;;;;;;20.45;100.00;92646.81;5008202;28;20032;-87
2023/10/20 08:40:14;;;;;;;18.97;15.00;;;;;;;20.66;100.00;92639.09;5013445;28;20395;-87
2023/10/20 08:42:40;;;;;;;18.93;14.83;;;;;;;20.82;100.00;92650.88;5033461;28;20118;-86
2023/10/20 08:45:15;;;;;;;17.97;14.00;;;;;;;20.77;100.00;92667.06;5033292;28;20017;-85
2023/10/20 08:47:42;;;;;;;15.10;13.07;;;;;;;21.14;100.00;92662.28;5027635;28;20025;-85
2023/10/20 08:50:09;;;;;;;17.10;13.97;;;;;;;21.48;100.00;92671.47;5011816;28;20487;-85
2023/10/20 08:52:38;;;;;;;17.65;14.38;;;;;;;21.37;100.00;92673.66;5010380;28;20506;-85
2023/10/20 08:55:07;;;;;;;16.77;13.27;;;;;;;21.11;100.00;92679.72;5022799;28;20123;-85
2023/10/20 08:57:33;;;;;;;15.37;12.63;;;;;;;19.98;100.00;92686.44;5026621;28;20445;-84
2023/10/20 08:59:58;;;;;;;15.77;12.80;;;;;;;20.07;100.00;92686.50;5018664;28;20116;-85
2023/10/20 09:02:24;;;;;;;16.70;12.73;;;;;;;20.10;100.00;92672.56;5026836;28;20423;-84
2023/10/20 09:04:51;;;;;;;17.53;12.90;;;;;;;20.16;100.00;92680.13;5038436;28;20398;-85
2023/10/20 09:07:17;;;;;;;21.53;13.73;;;;;;;20.00;100.00;92682.38;5019377;28;20040;-84
2023/10/20 09:09:43;;;;;;;18.38;14.02;;;;;;;20.15;100.00;92688.41;5022229;28;20124;-84
2023/10/20 09:12:09;;;;;;;17.15;13.85;;;;;;;19.94;100.00;92682.81;5020321;28;20145;-85
2023/10/20 09:14:40;;;;;;;17.43;13.77;;;;;;;19.35;100.00;92677.47;5016379;28;20033;-84
2023/10/20 09:17:08;;;;;;;17.88;14.00;;;;;;;19.80;100.00;92666.88;5055668;28;20021;-86
2023/10/20 09:19:35;;;;;;;17.73;14.43;;;;;;;19.46;100.00;92680.69;5023303;28;20102;-86
2023/10/20 09:22:01;;;;;;;19.73;14.87;;;;;;;19.12;100.00;92673.19;5018190;28;20071;-85
2023/10/20 09:24:34;;;;;;;18.00;15.82;;;;;;;19.55;100.00;92674.34;5029029;28;20029;-86
2023/10/20 09:27:01;;;;;;;21.27;15.50;;;;;;;19.68;100.00;92671.94;5039176;28;20025;-85
2023/10/20 09:29:43;;;;;;;21.77;16.88;;;;;;;19.83;100.00;92702.81;5017330;28;20029;-84
2023/10/20 09:32:09;;;;;;;19.63;15.75;;;;;;;19.94;100.00;92696.91;5023106;28;20556;-85
2023/10/20 09:34:35;;;;;;;19.63;16.65;;;;;;;19.80;100.00;92714.88;5029336;28;20672;-84
2023/10/20 09:37:01;;;;;;;20.50;18.20;;;;;;;19.54;100.00;92739.38;5038225;28;20029;-86
2023/10/20 09:39:39;;;;;;;23.13;19.25;;;;;;;19.85;100.00;92752.09;5039861;28;20024;-85
2023/10/20 09:42:06;;;;;;;24.57;19.50;;;;;;;19.73;100.00;92773.16;5032061;28;20539;-85
2023/10/20 09:44:46;;;;;;;32.22;20.48;;;;;;;19.25;100.00;92776.28;5037140;28;20033;-84
2023/10/20 09:47:21;;;;;;;21.67;19.30;;;;;;;19.29;100.00;92762.03;5026716;28;20021;-85
2023/10/20 09:49:47;;;;;;;21.70;18.55;;;;;;;19.37;100.00;92771.22;5020255;28;20037;-84
2023/10/20 09:52:13;;;;;;;25.07;19.13;;;;;;;20.16;100.00;92828.72;5045057;28;20855;-84
2023/10/20 09:54:39;;;;;;;26.50;20.10;;;;;;;20.55;100.00;92846.00;5038674;28;20029;-83
2023/10/20 09:57:06;;;;;;;20.88;18.35;;;;;;;19.76;100.00;92868.53;5023976;28;20017;-85
2023/10/20 09:59:37;;;;;;;21.10;16.80;;;;;;;20.30;100.00;92869.50;5021005;28;20025;-85
2023/10/20 10:02:10;;;;;;;21.33;17.40;;;;;;;20.29;100.00;92870.59;5017120;28;20478;-84
2023/10/20 10:04:38;;;;;;;21.40;16.60;;;;;;;19.94;100.00;92875.59;5016625;28;20169;-86
2023/10/20 10:07:04;;;;;;;20.95;17.45;;;;;;;20.93;100.00;92863.19;5014426;28;20021;-84
2023/10/20 10:09:49;;;;;;;23.17;15.85;;;;;;;21.22;100.00;92859.25;5010797;28;20052;-85
2023/10/20 10:12:19;;;;;;;16.55;14.73;;;;;;;20.97;100.00;92894.66;5028539;28;20043;-86
2023/10/20 10:14:59;;;;;;;21.88;15.95;;;;;;;21.08;100.00;92896.75;5028441;28;20036;-85
2023/10/20 10:18:02;;;;;;;18.00;15.45;;;;;;;21.89;100.00;92899.13;5031764;28;20090;-86
2023/10/20 10:20:28;;;;;;;18.27;15.82;;;;;;;21.50;100.00;92888.50;5023543;28;20074;-87
2023/10/20 10:23:04;;;;;;;17.95;15.68;;;;;;;22.22;100.00;92874.69;5014050;28;20025;-86
2023/10/20 10:25:36;;;;;;;18.15;16.02;;;;;;;22.09;100.00;92875.56;5016739;28;20035;-84
2023/10/20 10:28:15;;;;;;;18.38;16.38;;;;;;;22.12;100.00;92883.75;5032107;28;20026;-84
2023/10/20 10:30:42;;;;;;;21.55;18.73;;;;;;;22.22;100.00;92882.72;5026204;28;20518;-84
2023/10/20 10:33:11;;;;;;;21.33;17.83;;;;;;;22.15;100.00;92898.44;5029135;28;20440;-85
2023/10/20 10:35:42;;;;;;;19.05;17.02;;;;;;;22.40;100.00;92888.06;5011599;28;20021;-87
2023/10/20 10:38:22;;;;;;;23.95;17.63;;;;;;;22.54;100.00;92872.66;5018389;28;20120;-85
2023/10/20 10:40:51;;;;;;;20.42;16.67;;;;;;;22.94;100.00;92889.34;5010646;28;20037;-83
2023/10/20 10:43:18;;;;;;;22.52;17.52;;;;;;;22.72;100.00;92887.59;5027377;28;20083;-83
2023/10/20 10:45:44;;;;;;;21.55;18.25;;;;;;;22.84;100.00;92884.28;5038975;28;20525;-83
2023/10/20 10:48:11;;;;;;;21.48;17.50;;;;;;;22.92;100.00;92896.09;5027322;28;20068;-83
2023/10/20 10:50:39;;;;;;;24.23;18.50;;;;;;;22.47;100.00;92896.44;5009627;28;20037;-83
2023/10/20 10:53:05;;;;;;;20.40;18.17;;;;;;;22.60;100.00;92903.50;5035422;28;20045;-84
2023/10/20 10:55:31;;;;;;;20.73;17.95;;;;;;;22.38;100.00;92911.72;5033040;28;20044;-83
2023/10/20 10:58:07;;;;;;;24.10;20.15;;;;;;;22.57;100.00;92912.97;5025433;28;20033;-83
2023/10/20 11:00:37;;;;;;;24.20;20.00;;;;;;;23.59;100.00;92924.19;5020871;28;20025;-85
2023/10/20 11:03:04;;;;;;;24.27;20.95;;;;;;;23.62;100.00;92918.97;5017620;28;20033;-84
2023/10/20 11:05:32;;;;;;;21.90;18.52;;;;;;;23.71;100.00;92925.13;5026301;28;20144;-84
2023/10/20 11:08:01;;;;;;;22.00;16.90;;;;;;;22.92;100.00;92925.56;5028051;28;20083;-85
2023/10/20 11:10:29;;;;;;;21.67;17.95;;;;;;;23.46;100.00;92952.78;5010087;28;20824;-84
2023/10/20 11:12:57;;;;;;;13.50;10.70;;;;;;;22.67;100.00;92938.66;5026971;28;20036;-84
2023/10/20 11:15:30;;;;;;;13.02;9.70;;;;;;;23.04;100.00;92947.97;5032927;28;20025;-83
2023/10/20 11:18:00;;;;;;;36.97;10.50;;;;;;;22.60;100.00;92951.72;5026844;28;20044;-83
2023/10/20 11:20:27;;;;;;;11.73;8.75;;;;;;;22.88;100.00;92960.25;5026539;28;20080;-83
2023/10/20 11:22:54;;;;;;;11.27;8.68;;;;;;;23.09;100.00;92947.00;5020576;28;20025;-82
2023/10/20 11:25:20;;;;;;;10.88;7.85;;;;;;;22.93;100.00;92944.03;5032776;28;20032;-83
2023/10/20 11:27:54;;;;;;;9.88;7.50;;;;;;;23.04;100.00;92956.00;5023087;28;20026;-83
2023/10/20 11:30:26;;;;;;;9.82;7.35;;;;;;;22.96;100.00;92962.16;5027809;28;20017;-82
2023/10/20 11:32:55;;;;;;;7.90;6.10;;;;;;;23.62;100.00;92967.25;5011694;28;20052;-83
2023/10/20 11:35:22;;;;;;;9.82;7.50;;;;;;;24.04;100.00;92967.41;5002855;28;20495;-83
2023/10/20 11:37:48;;;;;;;8.68;5.82;;;;;;;23.32;100.00;92965.59;5046000;28;20041;-83
2023/10/20 11:40:15;;;;;;;8.27;4.75;;;;;;;23.38;100.00;92958.97;5016781;28;20068;-82
2023/10/20 11:42:41;;;;;;;6.53;4.45;;;;;;;23.19;100.00;92954.72;5029213;28;20029;-82
2023/10/20 11:45:07;;;;;;;5.57;3.63;;;;;;;23.50;100.00;92945.66;5019063;28;20092;-82
2023/10/20 11:47:33;;;;;;;9.98;3.97;;;;;;;23.97;100.00;92948.34;5013246;28;20017;-82
2023/10/20 11:49:59;;;;;;;5.97;2.90;;;;;;;23.95;100.00;92947.91;5026643;28;20025;-82
2023/10/20 11:52:25;;;;;;;3.88;2.40;;;;;;;23.85;100.00;92945.59;5036073;28;20379;-82
2023/10/20 11:55:02;;;;;;;5.30;2.58;;;;;;;23.65;100.00;92960.47;5012757;28;20030;-82